createdAt,value
2023-01-08T00:04:21.474Z,6.28
2023-01-08T00:11:03.789Z,6.68
2023-01-08T00:17:46.100Z,7.22
2023-01-08T00:24:28.422Z,7.13
2023-01-08T00:31:12.719Z,7.68
2023-01-08T00:37:55.605Z,8.32
2023-01-08T00:44:38.051Z,7.00
2023-01-08T00:51:20.410Z,7.30
2023-01-08T00:58:02.797Z,7.15
2023-01-08T01:04:45.074Z,7.82
2023-01-08T01:11:28.215Z,7.03
2023-01-08T01:18:11.280Z,7.47
2023-01-08T01:24:53.583Z,7.40
2023-01-08T01:31:36.146Z,7.70
2023-01-08T01:38:19.832Z,9.32
2023-01-08T01:45:22.224Z,8.52
2023-01-08T01:52:07.496Z,8.60
2023-01-08T01:58:49.794Z,8.50
2023-01-08T02:05:48.158Z,8.68
2023-01-08T02:12:32.563Z,7.30
2023-01-08T02:19:34.346Z,6.90
2023-01-08T02:26:32.486Z,5.53
2023-01-08T02:33:15.138Z,6.20
2023-01-08T02:40:19.569Z,6.05
2023-01-08T02:47:04.633Z,6.25
2023-01-08T02:53:51.267Z,7.13
2023-01-08T03:00:34.789Z,6.93
2023-01-08T03:07:17.699Z,6.90
2023-01-08T03:14:14.165Z,7.05
2023-01-08T03:20:56.567Z,7.40
2023-01-08T03:27:44.021Z,8.15
2023-01-08T03:34:28.642Z,6.85
2023-01-08T03:41:14.827Z,6.30
2023-01-08T03:47:58.931Z,6.38
2023-01-08T03:54:41.247Z,7.55
2023-01-08T04:01:23.688Z,6.70
2023-01-08T04:08:06.061Z,6.35
2023-01-08T04:14:48.400Z,6.90
2023-01-08T04:21:30.731Z,7.15
2023-01-08T04:28:13.094Z,6.20
2023-01-08T04:34:55.669Z,6.38
2023-01-08T04:41:38.157Z,6.90
2023-01-08T04:48:20.491Z,6.65
2023-01-08T04:55:03.754Z,5.63
2023-01-08T05:01:46.333Z,5.68
2023-01-08T05:08:28.795Z,6.28
2023-01-08T05:15:11.282Z,5.05
2023-01-08T05:21:53.578Z,5.75
2023-01-08T05:28:35.931Z,5.03
2023-01-08T05:35:19.524Z,4.20
2023-01-08T05:42:02.388Z,3.17
2023-01-08T05:48:44.795Z,2.10
2023-01-08T05:55:27.336Z,1.40
2023-01-08T06:02:10.022Z,1.35
2023-01-08T06:08:52.411Z,1.58
2023-01-08T06:15:34.953Z,1.63
2023-01-08T06:22:18.090Z,1.65
2023-01-08T06:29:00.754Z,1.65
2023-01-08T06:35:43.588Z,1.42
2023-01-08T06:42:26.088Z,1.20
2023-01-08T06:49:09.195Z,1.30
2023-01-08T06:55:56.833Z,1.40
2023-01-08T07:02:39.279Z,1.10
2023-01-08T07:09:21.726Z,1.20
2023-01-08T07:16:09.324Z,1.55
2023-01-08T07:22:51.914Z,1.20
2023-01-08T07:29:34.344Z,1.17
2023-01-08T07:36:19.336Z,1.10
2023-01-08T07:43:04.087Z,1.30
2023-01-08T07:49:46.762Z,1.20
2023-01-08T07:56:29.367Z,1.20
2023-01-08T08:03:12.010Z,1.15
2023-01-08T08:09:54.376Z,1.20
2023-01-08T08:16:36.710Z,1.42
2023-01-08T08:23:19.073Z,1.20
2023-01-08T08:30:01.643Z,1.20
2023-01-08T08:36:44.010Z,1.33
2023-01-08T08:43:26.370Z,1.20
2023-01-08T08:50:09.702Z,1.48
2023-01-08T08:56:52.051Z,1.45
2023-01-08T09:03:35.201Z,1.23
2023-01-08T09:10:17.691Z,1.50
2023-01-08T09:17:02.056Z,1.38
2023-01-08T09:23:44.421Z,1.30
2023-01-08T09:30:26.810Z,1.40
2023-01-08T09:37:09.177Z,1.42
2023-01-08T09:43:54.532Z,1.20
2023-01-08T09:50:37.835Z,1.38
2023-01-08T09:57:22.197Z,1.30
2023-01-08T10:04:13.134Z,1.48
2023-01-08T10:10:55.580Z,1.20
2023-01-08T10:17:42.437Z,1.20
2023-01-08T10:24:39.635Z,1.40
2023-01-08T10:31:22.113Z,1.20
2023-01-08T10:38:05.233Z,1.30
2023-01-08T10:44:58.789Z,1.20
2023-01-08T10:51:50.653Z,1.30
2023-01-08T10:58:43.571Z,1.20
2023-01-08T11:05:52.383Z,1.20
2023-01-08T11:12:41.715Z,1.50
2023-01-08T11:19:30.047Z,1.35
2023-01-08T11:26:21.397Z,0.98
2023-01-08T11:33:16.222Z,1.30
2023-01-08T11:39:58.911Z,0.85
2023-01-08T11:47:07.218Z,0.93
2023-01-08T11:54:14.420Z,1.20
2023-01-08T12:01:11.740Z,1.23
2023-01-08T12:08:04.394Z,1.20
2023-01-08T12:15:11.526Z,1.10
2023-01-08T12:22:03.886Z,1.00
2023-01-08T12:29:01.706Z,1.30
2023-01-08T12:35:54.423Z,1.00
2023-01-08T12:42:42.657Z,1.20
2023-01-08T12:49:40.494Z,1.00
2023-01-08T12:56:38.182Z,0.93
2023-01-08T13:03:25.795Z,1.20
2023-01-08T13:10:19.402Z,1.20
2023-01-08T13:17:05.106Z,1.00
2023-01-08T13:23:47.504Z,1.02
2023-01-08T13:30:42.819Z,1.10
2023-01-08T13:37:28.139Z,0.98
2023-01-08T13:44:28.878Z,1.20
2023-01-08T13:51:27.735Z,1.52
2023-01-08T13:58:20.586Z,1.35
2023-01-08T14:05:11.890Z,7.65
2023-01-08T14:11:58.131Z,1.52
2023-01-08T14:18:42.489Z,2.03
2023-01-08T14:25:25.240Z,1.20
2023-01-08T14:32:16.421Z,0.90
2023-01-08T14:38:58.744Z,1.00
2023-01-08T14:45:48.185Z,1.05
2023-01-08T14:52:30.727Z,1.00
2023-01-08T14:59:20.344Z,0.80
2023-01-08T15:06:04.054Z,1.05
2023-01-08T15:12:56.817Z,1.30
2023-01-08T15:19:48.315Z,1.27
2023-01-08T15:26:31.595Z,1.35
2023-01-08T15:33:21.063Z,0.95
2023-01-08T15:40:04.420Z,1.00
2023-01-08T15:46:46.959Z,1.52
2023-01-08T15:53:29.344Z,2.10
2023-01-08T16:00:16.147Z,1.40
2023-01-08T16:06:58.460Z,1.70
2023-01-08T16:13:40.900Z,2.28
2023-01-08T16:20:23.311Z,2.08
2023-01-08T16:27:06.810Z,2.90
2023-01-08T16:33:49.227Z,2.70
2023-01-08T16:40:31.650Z,3.78
2023-01-08T16:47:14.088Z,4.10
2023-01-08T16:53:56.537Z,3.78
2023-01-08T17:00:39.054Z,3.28
2023-01-08T17:07:22.323Z,2.30
2023-01-08T17:14:04.916Z,2.00
2023-01-08T17:20:56.388Z,2.08
2023-01-08T17:27:38.918Z,2.40
2023-01-08T17:34:21.278Z,3.00
2023-01-08T17:41:03.737Z,2.72
2023-01-08T17:47:46.220Z,2.63
2023-01-08T17:54:28.936Z,3.13
2023-01-08T18:01:13.317Z,8.60
2023-01-08T18:07:55.892Z,3.80
2023-01-08T18:14:39.741Z,3.83
2023-01-08T18:21:22.103Z,4.15
2023-01-08T18:28:04.472Z,3.95
2023-01-08T18:34:48.292Z,4.82
2023-01-08T18:41:49.355Z,4.68
2023-01-08T18:48:32.329Z,5.22
2023-01-08T18:55:14.796Z,5.07
2023-01-08T19:01:57.266Z,5.60
2023-01-08T19:08:40.451Z,5.97
2023-01-08T19:15:23.027Z,5.70
2023-01-08T19:22:05.346Z,5.65
2023-01-08T19:28:47.737Z,5.93
2023-01-08T19:35:30.306Z,5.38
2023-01-08T19:42:31.266Z,5.10
2023-01-08T19:49:13.651Z,5.90
2023-01-08T19:55:55.982Z,6.10
2023-01-08T20:02:38.424Z,5.80
2023-01-08T20:09:21.144Z,6.35
2023-01-08T20:16:06.076Z,5.68
2023-01-08T20:22:48.688Z,6.05
2023-01-08T20:29:32.732Z,5.32
2023-01-08T20:36:22.970Z,6.43
2023-01-08T20:43:05.432Z,5.18
2023-01-08T20:49:47.752Z,5.57
2023-01-08T20:56:30.166Z,5.45
2023-01-08T21:03:13.159Z,5.28
2023-01-08T21:09:55.748Z,5.72
2023-01-08T21:16:40.286Z,5.47
2023-01-08T21:23:22.713Z,4.68
2023-01-08T21:30:05.908Z,5.20
2023-01-08T21:36:48.328Z,4.45
2023-01-08T21:44:06.545Z,4.57
2023-01-08T21:50:48.929Z,4.60
2023-01-08T21:57:39.077Z,7.38
2023-01-08T22:04:21.470Z,4.05
2023-01-08T22:11:08.076Z,3.78
2023-01-08T22:17:50.397Z,5.13
2023-01-08T22:24:33.092Z,6.18
2023-01-08T22:31:16.902Z,6.47
2023-01-08T22:37:59.296Z,6.43
2023-01-08T22:44:42.380Z,5.55
2023-01-08T22:51:27.491Z,4.78
2023-01-08T22:58:10.075Z,5.28
2023-01-08T23:04:52.769Z,6.07
2023-01-08T23:11:35.156Z,6.47
2023-01-08T23:18:17.503Z,6.07
2023-01-08T23:25:00.399Z,6.57
2023-01-08T23:31:44.062Z,7.00
2023-01-08T23:38:26.554Z,6.78
2023-01-08T23:45:11.323Z,6.18
2023-01-08T23:51:55.000Z,6.05
2023-01-08T23:58:37.708Z,5.18
